Time;durP1;ratioP1;P1;durP2;ratioP2;P2;SDS_P1;SDS_P2;PMS_P1;PMS_P2;Temp;Humidity;BMP_temperature;BMP_pressure;BME280_temperature;BME280_humidity;BME280_pressure;Samples;Min_cycle;Max_cycle;Signal;HPM_P1;HPM_P2
2022/03/23 00:00:56;;;;;;;11.25;3.60;;;;;;;5.20;36.99;100629.63;5128332;22;20029;-82
2022/03/23 00:03:22;;;;;;;9.52;3.47;;;;;;;5.39;37.30;100673.97;4985536;28;20057;-82
2022/03/23 00:05:48;;;;;;;10.10;3.60;;;;;;;5.01;38.04;100623.03;5152042;23;20082;-80
2022/03/23 00:10:49;;;;;;;7.13;3.03;;;;;;;5.37;37.06;100653.34;1407465;26;20049;-81
2022/03/23 00:13:15;;;;;;;8.95;3.38;;;;;;;5.31;37.10;100629.97;4987936;28;20048;-81
2022/03/23 00:15:41;;;;;;;7.25;3.10;;;;;;;5.56;36.56;100665.13;5004083;28;20145;-80
2022/03/23 00:54:41;;;;;;;5.90;2.92;;;;;;;5.90;36.76;100594.94;5598141;24;20085;-81
2022/03/23 00:57:07;;;;;;;;;;;;;;;6.35;36.22;100644.38;4733670;30;20049;-81
2022/03/23 00:59:33;;;;;;;6.97;3.20;;;;;;;5.98;36.69;100598.66;4728247;30;19925;-82
2022/03/23 01:04:35;;;;;;;11.80;3.85;;;;;;;5.69;36.53;100584.00;5202794;24;20288;-82
2022/03/23 01:07:01;;;;;;;9.27;3.17;;;;;;;5.36;37.49;100584.72;4703032;30;20061;-81
2022/03/23 01:09:27;;;;;;;7.07;3.30;;;;;;;5.23;37.88;100592.88;4716185;30;20066;-81
2022/03/23 01:11:54;;;;;;;8.05;3.33;;;;;;;5.31;37.96;100593.97;4699754;30;20185;-80
2022/03/23 01:14:22;;;;;;;10.30;3.50;;;;;;;5.21;37.96;100590.22;4711385;30;20131;-81
2022/03/23 01:16:50;;;;;;;10.35;3.80;;;;;;;5.40;38.02;100630.28;4694453;30;20131;-80
2022/03/23 01:19:17;;;;;;;7.30;3.38;;;;;;;5.26;37.62;100590.38;4709401;30;20088;-81
2022/03/23 01:21:44;;;;;;;8.40;3.00;;;;;;;5.19;38.03;100593.59;4700037;30;20174;-81
2022/03/23 01:24:12;;;;;;;9.52;3.50;;;;;;;5.22;38.10;100596.25;4706522;30;20059;-81
2022/03/23 01:26:38;;;;;;;8.52;3.42;;;;;;;4.99;39.05;100611.78;4699087;30;20045;-81
2022/03/23 01:29:04;;;;;;;12.25;3.47;;;;;;;4.71;39.07;100591.13;4698314;30;20111;-81
2022/03/23 01:31:31;;;;;;;27.02;17.40;;;;;;;4.47;39.80;100594.59;4716271;30;20093;-80
2022/03/23 01:33:59;;;;;;;8.63;4.57;;;;;;;4.40;40.37;100609.72;4709888;30;20069;-80
2022/03/23 01:36:33;;;;;;;6.45;3.38;;;;;;;4.39;40.71;100601.13;4703341;30;20045;-81
2022/03/23 01:38:59;;;;;;;7.47;3.10;;;;;;;4.36;40.73;100606.19;4701741;30;20056;-81
2022/03/23 01:41:25;;;;;;;7.32;3.55;;;;;;;4.15;41.19;100582.28;4702618;30;20124;-80
2022/03/23 01:43:51;;;;;;;8.45;3.08;;;;;;;4.17;40.89;100585.78;4716197;30;20048;-81
2022/03/23 01:46:17;;;;;;;9.23;3.30;;;;;;;4.18;41.00;100602.94;4731149;30;20075;-81
2022/03/23 01:48:44;;;;;;;10.15;3.40;;;;;;;4.41;40.22;100589.25;4730822;30;20142;-80
2022/03/23 01:51:10;;;;;;;13.82;3.60;;;;;;;4.43;39.66;100572.16;4710277;30;20049;-80
2022/03/23 01:53:36;;;;;;;9.40;3.20;;;;;;;4.20;41.06;100588.47;4709161;30;20045;-81
2022/03/23 01:56:03;;;;;;;8.45;3.00;;;;;;;3.94;41.66;100593.53;4689276;30;20043;-81
2022/03/23 01:58:29;;;;;;;9.38;3.13;;;;;;;3.95;41.80;100602.09;4713026;30;20055;-80
2022/03/23 02:00:55;;;;;;;8.85;3.50;;;;;;;3.95;41.59;100589.28;4699845;30;20041;-81
2022/03/23 02:03:23;;;;;;;15.20;3.22;;;;;;;4.15;41.45;100606.28;4707920;30;20052;-81
2022/03/23 02:05:49;;;;;;;13.25;3.55;;;;;;;3.90;41.75;100583.09;4713599;30;20045;-80
2022/03/23 02:08:17;;;;;;;11.18;3.20;;;;;;;3.71;42.09;100589.19;4699453;30;20506;-81
2022/03/23 02:10:48;;;;;;;10.98;3.20;;;;;;;3.55;42.46;100596.31;4700306;30;20055;-82
2022/03/23 02:13:15;;;;;;;9.68;3.33;;;;;;;3.52;42.09;100578.22;4713696;30;20056;-81
2022/03/23 02:15:41;;;;;;;10.00;3.05;;;;;;;3.61;41.91;100574.28;4696389;30;20029;-81
2022/03/23 02:18:07;;;;;;;9.93;3.42;;;;;;;3.89;41.50;100592.44;4696462;30;20107;-82
2022/03/23 02:20:34;;;;;;;9.35;2.88;;;;;;;3.99;41.21;100584.31;4714702;30;20039;-80
2022/03/23 02:23:00;;;;;;;11.45;3.50;;;;;;;3.94;41.52;100597.75;4703785;30;20052;-80
2022/03/23 02:25:27;;;;;;;12.85;3.50;;;;;;;3.84;41.93;100578.56;4692291;30;20104;-81
2022/03/23 02:27:54;;;;;;;13.27;3.15;;;;;;;3.85;41.48;100571.75;4686362;30;20052;-79
2022/03/23 02:30:19;;;;;;;13.00;3.72;;;;;;;4.04;41.21;100566.50;4697236;30;20040;-81
2022/03/23 02:32:45;;;;;;;13.70;3.35;;;;;;;4.07;40.76;100561.47;4697510;30;20465;-82
2022/03/23 02:35:15;;;;;;;11.48;3.20;;;;;;;4.05;40.92;100586.22;4700738;30;20064;-81
2022/03/23 02:37:42;;;;;;;12.32;3.08;;;;;;;3.97;41.26;100579.91;4709005;30;20080;-80
2022/03/23 02:40:09;;;;;;;11.25;3.60;;;;;;;3.98;40.98;100568.81;4680549;30;20041;-82
2022/03/23 02:42:38;;;;;;;9.23;3.13;;;;;;;4.12;40.82;100582.16;4693114;30;20045;-81
2022/03/23 02:45:05;;;;;;;11.07;3.10;;;;;;;4.23;40.34;100573.19;4705984;30;20032;-82
2022/03/23 02:47:31;;;;;;;11.43;3.22;;;;;;;4.40;39.82;100584.03;4704677;30;20045;-82
2022/03/23 02:49:57;;;;;;;10.45;3.30;;;;;;;4.45;40.05;100585.97;4706655;30;20042;-81
2022/03/23 02:52:22;;;;;;;8.73;2.78;;;;;;;4.30;40.44;100572.56;4695041;30;20091;-80
2022/03/23 03:03:19;;;;;;;10.20;2.88;;;;;;;4.96;38.91;100578.28;4726174;30;20080;-82
2022/03/23 03:05:45;;;;;;;7.88;2.78;;;;;;;4.85;38.59;100559.03;4695216;30;20502;-81
2022/03/23 03:10:55;;;;;;;12.00;3.40;;;;;;;4.66;39.11;100548.97;4682343;30;20069;-81
2022/03/23 03:13:21;;;;;;;16.50;3.28;;;;;;;4.85;38.73;100582.16;4677746;30;20069;-81
2022/03/23 03:15:47;;;;;;;16.13;3.05;;;;;;;4.89;38.31;100560.88;4690759;30;20514;-80
2022/03/23 03:18:13;;;;;;;10.13;3.20;;;;;;;4.96;38.13;100557.72;4701027;30;20038;-80
2022/03/23 03:20:38;;;;;;;9.82;2.95;;;;;;;4.93;37.95;100549.00;4700315;30;20041;-82
2022/03/23 03:23:04;;;;;;;9.38;3.25;;;;;;;4.91;38.09;100566.97;4704230;30;20047;-80
2022/03/23 03:25:30;;;;;;;10.32;3.35;;;;;;;4.64;38.86;100563.47;4700935;30;20045;-80
2022/03/23 03:27:56;;;;;;;12.68;3.38;;;;;;;4.38;39.22;100545.44;4713490;30;20072;-80
2022/03/23 03:30:22;;;;;;;9.20;2.92;;;;;;;4.40;39.63;100566.03;4702453;30;20518;-80
2022/03/23 03:32:48;;;;;;;13.85;3.15;;;;;;;4.28;39.42;100545.97;4698294;30;20076;-81
2022/03/23 03:35:14;;;;;;;8.10;3.45;;;;;;;4.45;39.37;100547.44;4704726;30;20053;-82
2022/03/23 03:37:40;;;;;;;12.35;3.00;;;;;;;4.63;39.27;100557.47;4686761;30;20069;-81
2022/03/23 03:40:06;;;;;;;6.47;2.67;;;;;;;4.33;39.42;100554.69;4711508;30;20060;-81
2022/03/23 03:42:36;;;;;;;11.75;2.75;;;;;;;4.68;38.98;100555.91;4699264;30;20041;-83
2022/03/23 03:45:05;;;;;;;9.30;3.10;;;;;;;4.63;38.95;100542.03;4712683;30;20120;-81
2022/03/23 03:47:31;;;;;;;12.10;3.10;;;;;;;4.63;38.91;100548.84;4699129;30;20034;-82
2022/03/23 03:49:59;;;;;;;14.63;3.30;;;;;;;4.83;38.60;100550.41;4698420;30;20120;-81
2022/03/23 03:52:25;;;;;;;10.55;3.20;;;;;;;4.88;38.36;100551.44;4697085;30;20076;-81
2022/03/23 03:54:50;;;;;;;;;;;;;;;4.91;38.54;100559.25;4693978;30;20059;-80
2022/03/23 03:57:16;;;;;;;12.50;4.32;;;;;;;4.57;39.00;100565.81;4710229;30;19923;-82
2022/03/23 03:59:42;;;;;;;9.18;3.20;;;;;;;4.29;39.35;100545.13;4696101;30;20053;-82
2022/03/23 04:02:08;;;;;;;10.63;3.42;;;;;;;4.31;39.67;100548.66;4699166;30;20049;-80
2022/03/23 04:04:34;;;;;;;12.02;2.90;;;;;;;4.02;40.30;100525.34;4708194;30;20099;-81
2022/03/23 04:07:00;;;;;;;;;;;;;;;4.04;40.77;100554.53;4717670;30;20052;-80
2022/03/23 04:09:25;;;;;;;11.90;3.97;;;;;;;3.80;41.38;100548.47;4714266;30;20392;-79
2022/03/23 04:11:51;;;;;;;14.40;3.78;;;;;;;3.58;41.44;100549.38;4703336;30;20041;-82
2022/03/23 04:14:17;;;;;;;16.00;3.30;;;;;;;3.55;41.69;100550.13;4705845;30;20056;-80
2022/03/23 04:16:43;;;;;;;15.93;3.28;;;;;;;3.46;41.87;100542.09;4702868;30;20041;-79
2022/03/23 04:19:09;;;;;;;15.00;3.60;;;;;;;3.37;42.26;100534.03;4680847;30;20056;-81
2022/03/23 04:21:35;;;;;;;10.93;3.40;;;;;;;3.33;42.23;100534.72;4698323;30;20041;-79
2022/03/23 04:24:01;;;;;;;17.85;3.65;;;;;;;3.72;41.74;100552.47;4715285;30;20053;-80
2022/03/23 04:26:26;;;;;;;16.27;3.47;;;;;;;3.64;41.51;100543.59;4679719;30;20038;-81
2022/03/23 04:28:52;;;;;;;13.85;4.32;;;;;;;3.50;42.17;100531.13;4698108;30;20049;-81
2022/03/23 04:31:20;;;;;;;20.30;3.58;;;;;;;3.54;42.42;100545.81;4706364;30;20072;-79
2022/03/23 04:33:46;;;;;;;21.52;3.70;;;;;;;3.47;42.08;100541.25;4704097;30;20055;-80
2022/03/23 04:36:12;;;;;;;24.50;4.88;;;;;;;3.72;41.62;100557.59;4700900;30;20041;-80
2022/03/23 04:38:38;;;;;;;25.58;4.20;;;;;;;3.93;41.55;100549.81;4699878;30;20037;-83
2022/03/23 04:41:04;;;;;;;39.75;5.22;;;;;;;3.75;41.23;100550.00;4707079;30;20064;-81
2022/03/23 04:43:32;;;;;;;33.95;4.53;;;;;;;3.70;41.87;100549.81;4704894;30;20050;-81
2022/03/23 04:45:58;;;;;;;29.48;4.72;;;;;;;3.68;41.71;100522.38;4710839;30;20072;-80
2022/03/23 04:48:24;;;;;;;46.30;5.40;;;;;;;3.79;41.77;100554.44;4719801;30;20051;-80
2022/03/23 04:50:51;;;;;;;27.35;5.10;;;;;;;3.67;41.83;100520.63;4706046;30;20053;-83
2022/03/23 04:53:18;;;;;;;33.85;5.13;;;;;;;3.64;42.27;100518.81;4706487;30;20049;-82
2022/03/23 04:55:46;;;;;;;24.33;5.63;;;;;;;3.49;42.02;100488.34;4693410;30;20049;-80
2022/03/23 04:58:13;;;;;;;38.95;5.57;;;;;;;3.65;42.16;100515.44;4721532;30;20049;-80
2022/03/23 05:00:40;;;;;;;34.60;5.55;;;;;;;3.72;42.16;100529.38;4723411;30;20040;-81
2022/03/23 05:03:06;;;;;;;37.42;5.03;;;;;;;3.54;42.25;100519.28;4707837;30;20083;-79
2022/03/23 05:05:32;;;;;;;26.63;5.28;;;;;;;3.61;42.46;100533.22;4692567;30;20073;-80
2022/03/23 05:07:58;;;;;;;30.60;5.25;;;;;;;3.44;42.33;100492.44;4723358;30;20481;-79
2022/03/23 05:10:23;;;;;;;28.90;5.22;;;;;;;3.88;41.28;100526.53;4721630;30;20041;-80
2022/03/23 05:12:50;;;;;;;32.58;5.30;;;;;;;4.36;40.57;100546.25;4703252;30;20057;-81
2022/03/23 05:15:16;;;;;;;24.30;5.32;;;;;;;4.47;39.58;100507.22;4690796;30;20052;-81
2022/03/23 05:17:42;;;;;;;31.15;5.10;;;;;;;4.83;38.54;100530.72;4691479;30;20123;-80
2022/03/23 05:20:08;;;;;;;28.92;4.68;;;;;;;4.85;38.56;100539.34;4716973;30;20044;-80
2022/03/23 05:22:35;;;;;;;21.95;4.68;;;;;;;4.70;38.48;100530.25;4703910;30;20080;-81
2022/03/23 05:25:01;;;;;;;29.10;4.90;;;;;;;4.24;38.49;100473.06;4690094;30;20062;-80
2022/03/23 05:27:27;;;;;;;;;;;;;;;4.72;39.17;100531.16;4705257;30;20045;-79
2022/03/23 05:29:53;;;;;;;20.55;4.65;;;;;;;4.38;39.40;100495.78;4710442;30;20312;-80
2022/03/23 05:32:19;;;;;;;20.88;5.18;;;;;;;4.28;39.25;100481.75;4711815;30;20057;-81
2022/03/23 05:34:46;;;;;;;27.55;5.00;;;;;;;4.74;39.58;100532.97;4690331;30;20041;-80
2022/03/23 05:37:12;;;;;;;19.23;4.97;;;;;;;4.56;39.23;100506.66;4690055;30;20054;-80
2022/03/23 05:39:39;;;;;;;26.63;5.75;;;;;;;4.39;39.02;100488.09;4707770;30;20059;-81
2022/03/23 05:42:05;;;;;;;26.50;5.38;;;;;;;4.23;39.62;100476.44;4707446;30;20073;-80
2022/03/23 05:44:31;;;;;;;;;;;;;;;4.48;40.02;100532.09;4709027;30;20052;-82
2022/03/23 05:46:57;;;;;;;25.80;5.32;;;;;;;4.20;39.52;100493.44;4717117;30;19923;-80
2022/03/23 05:49:24;;;;;;;31.83;5.47;;;;;;;4.30;39.73;100500.63;4705949;30;20044;-79
2022/03/23 05:51:52;;;;;;;27.00;4.47;;;;;;;4.45;38.47;100483.19;4700331;30;20124;-82
2022/03/23 05:54:22;;;;;;;19.25;5.40;;;;;;;4.55;37.66;100464.69;4726756;30;20073;-80
2022/03/23 05:56:50;;;;;;;14.57;3.60;;;;;;;4.83;37.09;100497.28;4710191;30;20048;-83
2022/03/23 05:59:19;;;;;;;26.98;5.45;;;;;;;5.14;37.64;100531.72;4723576;30;20044;-82
2022/03/23 06:01:48;;;;;;;23.48;4.35;;;;;;;4.95;36.93;100476.25;4724069;30;20128;-81
2022/03/23 06:04:14;;;;;;;25.98;4.38;;;;;;;5.09;37.20;100513.56;4694314;30;20438;-80
2022/03/23 06:09:58;;;;;;;30.95;4.53;;;;;;;4.74;37.90;100468.72;2484962;24;20077;-82
2022/03/23 06:12:27;;;;;;;32.03;4.63;;;;;;;4.88;37.33;100489.72;4738667;30;20040;-80
2022/03/23 06:14:59;;;;;;;14.20;4.00;;;;;;;4.99;36.92;100485.78;4726738;30;20060;-82
2022/03/23 06:17:25;;;;;;;20.02;4.88;;;;;;;5.21;36.29;100501.91;4725599;30;20057;-82
2022/03/23 06:19:52;;;;;;;18.52;4.63;;;;;;;5.21;35.69;100495.06;4722269;30;20041;-79
2022/03/23 06:22:19;;;;;;;18.05;4.03;;;;;;;5.02;35.76;100465.31;4722332;30;20049;-83
2022/03/23 06:24:45;;;;;;;15.18;4.15;;;;;;;5.15;35.63;100494.88;4710047;30;20083;-81
2022/03/23 06:27:13;;;;;;;19.02;4.18;;;;;;;5.39;35.99;100511.88;4748995;30;20520;-82
2022/03/23 06:29:39;;;;;;;15.93;4.10;;;;;;;5.29;36.02;100485.00;4725576;30;20060;-83
2022/03/23 06:32:06;;;;;;;;;;;;;;;5.75;35.62;100524.97;4713201;30;20052;-82
2022/03/23 06:34:35;;;;;;;19.42;4.53;;;;;;;5.82;35.42;100525.22;4744512;30;20409;-80
2022/03/23 06:37:01;;;;;;;24.60;4.25;;;;;;;5.71;35.53;100490.53;4743549;30;20079;-81
2022/03/23 06:39:30;;;;;;;22.08;5.53;;;;;;;5.79;35.43;100478.75;4739278;30;20040;-82
2022/03/23 06:41:57;;;;;;;26.33;5.22;;;;;;;5.80;34.54;100465.06;4925697;24;20072;-81
2022/03/23 06:44:23;;;;;;;12.57;4.00;;;;;;;5.93;35.00;100456.00;4724772;30;20049;-81
2022/03/23 06:46:50;;;;;;;16.90;4.45;;;;;;;6.07;34.66;100487.28;4724685;30;20048;-81
2022/03/23 06:49:16;;;;;;;13.68;4.22;;;;;;;5.72;35.15;100466.53;4725373;30;20079;-81
2022/03/23 06:51:45;;;;;;;15.82;3.97;;;;;;;5.90;34.82;100463.59;4737722;30;20056;-81
2022/03/23 06:54:10;;;;;;;19.73;4.18;;;;;;;6.09;34.65;100468.47;4725163;30;20045;-82
2022/03/23 06:56:37;;;;;;;18.40;4.65;;;;;;;6.08;34.34;100482.16;4726338;30;20055;-81
2022/03/23 06:59:04;;;;;;;;;;;;;;;6.22;34.15;100515.16;4725085;30;20051;-80
2022/03/23 07:01:31;;;;;;;13.25;4.82;;;;;;;5.98;34.91;100475.03;4739702;30;19978;-82
2022/03/23 07:03:57;;;;;;;18.45;5.22;;;;;;;6.07;34.72;100495.88;4723148;30;20109;-81
2022/03/23 07:06:24;;;;;;;16.80;4.43;;;;;;;5.95;34.80;100474.94;4725004;30;20052;-81
2022/03/23 07:11:36;;;;;;;17.10;4.63;;;;;;;5.89;34.34;100433.53;4742975;30;20194;-81
2022/03/23 07:16:54;;;;;;;14.52;3.97;;;;;;;6.22;34.09;100448.16;5208442;24;20145;-81
2022/03/23 07:19:22;;;;;;;15.18;4.03;;;;;;;6.35;33.30;100450.22;4726989;30;20054;-79
2022/03/23 07:21:50;;;;;;;18.48;5.47;;;;;;;6.30;33.83;100456.97;4736609;30;20055;-82
2022/03/23 07:24:16;;;;;;;13.15;3.78;;;;;;;6.51;33.27;100473.00;4736423;30;20048;-81
2022/03/23 07:26:44;;;;;;;13.75;4.20;;;;;;;6.52;33.78;100476.44;4724741;30;20040;-80
2022/03/23 07:29:11;;;;;;;14.07;4.00;;;;;;;6.61;33.47;100474.97;4736871;30;20053;-82
2022/03/23 07:31:37;;;;;;;13.95;4.35;;;;;;;6.74;33.09;100463.25;4706573;30;20049;-81
2022/03/23 07:34:04;;;;;;;12.10;3.60;;;;;;;7.05;32.37;100479.44;4727589;30;20063;-82
2022/03/23 07:36:31;;;;;;;13.98;3.67;;;;;;;7.01;32.41;100447.56;4728198;30;20028;-82
2022/03/23 07:39:00;;;;;;;19.02;5.10;;;;;;;7.08;32.81;100454.59;4757096;30;20055;-80
2022/03/23 07:41:26;;;;;;;;;;;;;;;7.49;33.83;100485.59;4723015;30;20016;-82
2022/03/23 07:43:53;;;;;;;18.05;4.40;;;;;;;7.33;33.92;100434.47;4738952;30;19922;-81
2022/03/23 07:46:23;;;;;;;18.83;4.15;;;;;;;7.38;33.04;100431.16;4708910;30;20048;-82
2022/03/23 07:48:57;;;;;;;19.08;4.65;;;;;;;7.57;33.14;100447.91;4739047;30;20041;-80
2022/03/23 07:51:25;;;;;;;20.85;4.57;;;;;;;7.68;33.00;100435.19;4738448;30;20056;-83
2022/03/23 07:53:51;;;;;;;9.98;4.03;;;;;;;7.98;31.75;100424.59;4706265;30;20110;-81
2022/03/23 07:56:18;;;;;;;8.57;2.85;;;;;;;8.02;30.38;100408.31;4720550;30;20071;-81
2022/03/23 07:58:45;;;;;;;7.53;2.72;;;;;;;8.56;30.22;100441.13;4737457;30;20029;-83
2022/03/23 08:01:15;;;;;;;7.05;3.40;;;;;;;8.65;29.32;100423.19;4709844;30;20083;-82
2022/03/23 08:03:41;;;;;;;12.10;2.90;;;;;;;8.49;28.90;100412.59;4724698;30;20078;-81
2022/03/23 08:06:07;;;;;;;7.90;2.85;;;;;;;8.78;29.32;100441.50;4739447;30;20068;-81
2022/03/23 08:08:36;;;;;;;10.05;3.15;;;;;;;8.80;28.65;100440.69;4725046;30;20016;-83
2022/03/23 08:11:02;;;;;;;11.77;2.75;;;;;;;8.95;28.53;100428.81;4709413;30;20232;-83
2022/03/23 08:13:30;;;;;;;4.90;2.55;;;;;;;9.33;28.07;100421.56;4709892;30;20024;-80
2022/03/23 08:15:57;;;;;;;13.23;3.00;;;;;;;9.06;27.83;100403.94;4725113;30;20060;-81
2022/03/23 08:18:23;;;;;;;;;;;;;;;9.43;27.96;100455.38;4712956;30;20130;-81
2022/03/23 08:20:49;;;;;;;9.15;2.50;;;;;;;9.57;27.02;100458.13;4746616;30;19922;-81
2022/03/23 08:23:19;;;;;;;;;;;;;;;9.52;27.53;100456.34;4875700;24;20064;-83
2022/03/23 08:25:47;;;;;;;7.07;3.15;;;;;;;9.42;28.03;100411.34;4757691;30;19922;-82
2022/03/23 08:28:14;;;;;;;8.88;2.88;;;;;;;9.80;28.03;100429.06;4715988;30;20068;-83
2022/03/23 08:30:41;;;;;;;9.38;2.90;;;;;;;10.60;26.61;100421.22;4737112;30;20107;-81
2022/03/23 08:33:07;;;;;;;9.45;2.60;;;;;;;11.22;26.15;100432.88;4743227;30;20039;-82
2022/03/23 08:35:33;;;;;;;;;;;;;;;11.27;25.30;100440.69;4724022;30;20056;-81
2022/03/23 08:37:59;;;;;;;8.88;2.40;;;;;;;10.99;25.59;100393.78;4722651;30;19922;-81
2022/03/23 08:40:25;;;;;;;6.65;2.33;;;;;;;10.85;25.63;100383.34;4711626;30;20044;-83
2022/03/23 08:42:52;;;;;;;7.60;2.50;;;;;;;10.51;25.89;100377.06;4729909;30;20044;-82
2022/03/23 08:45:19;;;;;;;11.65;3.05;;;;;;;10.15;26.55;100382.75;4735203;30;20040;-82
2022/03/23 08:47:51;;;;;;;;;;;;;;;10.31;26.69;100427.88;4709276;30;20082;-84
2022/03/23 08:50:17;;;;;;;5.82;2.30;;;;;;;10.13;27.09;100405.22;4742231;30;19925;-81
2022/03/23 08:52:43;;;;;;;9.73;2.97;;;;;;;10.04;27.31;100361.94;4719991;30;20037;-80
2022/03/23 08:55:13;;;;;;;6.07;2.83;;;;;;;9.98;27.14;100384.31;4754385;30;20032;-84
2022/03/23 08:57:42;;;;;;;4.32;2.58;;;;;;;10.02;27.46;100399.91;4730149;30;20069;-82
2022/03/23 09:00:09;;;;;;;8.32;2.85;;;;;;;9.82;27.44;100370.34;4738369;30;20036;-82
2022/03/23 09:02:35;;;;;;;7.15;2.40;;;;;;;9.72;27.22;100389.25;4726112;30;20052;-79
2022/03/23 09:05:02;;;;;;;4.45;2.30;;;;;;;9.80;27.05;100404.00;4730740;30;20104;-79
2022/03/23 09:07:27;;;;;;;5.88;2.50;;;;;;;9.55;27.91;100366.59;4729027;30;20048;-81
2022/03/23 09:09:53;;;;;;;5.97;2.22;;;;;;;9.78;27.44;100407.44;4727504;30;20117;-80
2022/03/23 09:12:20;;;;;;;;;;;;;;;9.82;26.99;100406.63;4743071;30;20056;-82
2022/03/23 09:14:46;;;;;;;8.45;2.13;;;;;;;9.48;27.38;100351.84;4722285;30;19930;-82
2022/03/23 09:17:11;;;;;;;;;;;;;;;9.72;27.08;100405.66;4710176;30;20029;-83
2022/03/23 09:22:28;;;;;;;8.20;2.58;;;;;;;9.54;27.60;100383.00;4753599;30;20074;-82
2022/03/23 09:24:56;;;;;;;7.18;2.30;;;;;;;9.69;26.95;100359.00;4740745;30;20044;-81
2022/03/23 09:27:22;;;;;;;4.72;2.55;;;;;;;10.28;27.25;100391.56;4721490;30;20044;-83
2022/03/23 09:29:48;;;;;;;;;;;;;;;10.39;26.17;100383.00;4725732;30;20124;-83
2022/03/23 09:32:20;;;;;;;5.25;2.15;;;;;;;10.25;26.60;100353.50;4735205;30;19918;-82
2022/03/23 09:38:18;;;;;;;6.60;2.10;;;;;;;10.80;25.03;100308.91;4731378;30;20080;-83
2022/03/23 09:40:50;;;;;;;8.05;2.00;;;;;;;11.26;24.52;100329.88;4744525;30;20124;-82
2022/03/23 09:43:17;;;;;;;4.68;2.10;;;;;;;12.34;24.12;100331.84;4705486;30;20081;-80
2022/03/23 09:48:09;;;;;;;11.70;2.45;;;;;;;14.96;21.43;100297.25;4724064;30;20104;-81
2022/03/23 09:50:36;;;;;;;5.25;2.15;;;;;;;15.85;20.31;100293.44;4743922;30;20598;-82
2022/03/23 09:53:02;;;;;;;5.60;2.40;;;;;;;16.54;19.13;100303.63;4722074;30;20048;-80
2022/03/23 09:55:29;;;;;;;4.80;2.20;;;;;;;16.80;18.78;100287.44;4738312;30;20100;-81
2022/03/23 09:57:56;;;;;;;5.72;2.00;;;;;;;17.39;18.18;100287.97;4734885;30;20132;-81
2022/03/23 10:00:29;;;;;;;6.63;1.98;;;;;;;17.85;17.48;100291.31;4725149;30;20127;-81
2022/03/23 10:03:38;;;;;;;8.80;2.28;;;;;;;18.28;17.00;100272.75;4734949;30;20052;-82
2022/03/23 10:06:42;;;;;;;3.13;2.03;;;;;;;19.04;16.78;100314.50;4747583;30;20073;-81
2022/03/23 10:12:12;;;;;;;5.30;2.17;;;;;;;20.24;15.68;100311.69;4817179;24;20090;-82
2022/03/23 10:15:16;;;;;;;6.35;1.92;;;;;;;20.47;16.30;100308.28;4740221;30;20108;-82
2022/03/23 10:17:42;;;;;;;5.18;2.20;;;;;;;21.01;15.39;100302.00;4736327;30;20473;-83
2022/03/23 10:20:16;;;;;;;6.25;2.72;;;;;;;21.38;15.03;100290.09;4769874;30;20112;-82
2022/03/23 10:22:51;;;;;;;7.93;2.25;;;;;;;21.45;14.64;100289.81;4734942;30;20113;-79
2022/03/23 10:25:18;;;;;;;3.28;2.20;;;;;;;20.98;15.01;100246.72;4720136;30;20087;-83
2022/03/23 10:30:39;;;;;;;10.40;2.22;;;;;;;22.35;14.02;100279.13;3988599;28;20072;-85
2022/03/23 10:33:19;;;;;;;4.30;2.30;;;;;;;22.53;13.91;100265.97;4739856;30;20512;-82
2022/03/23 10:35:45;;;;;;;4.63;2.22;;;;;;;22.21;13.68;100235.63;4715759;30;20064;-82
2022/03/23 10:38:15;;;;;;;5.20;2.30;;;;;;;21.47;14.16;100205.25;4724363;30;20064;-81
2022/03/23 10:40:43;;;;;;;5.85;2.13;;;;;;;22.11;14.08;100234.28;4725451;30;20053;-81
2022/03/23 10:43:11;;;;;;;6.10;2.30;;;;;;;22.10;14.16;100237.84;4711235;30;20048;-84
2022/03/23 10:45:37;;;;;;;6.40;2.00;;;;;;;21.62;14.11;100212.56;4721727;30;20052;-81
2022/03/23 10:48:11;;;;;;;5.35;2.13;;;;;;;21.42;14.47;100228.34;4723633;30;20033;-81
2022/03/23 10:50:37;;;;;;;4.10;2.00;;;;;;;21.81;14.40;100217.97;4740636;30;20058;-83
2022/03/23 10:55:38;;;;;;;9.32;2.35;;;;;;;22.52;13.75;100207.88;4753848;30;20467;-82
2022/03/23 11:01:06;;;;;;;4.53;2.20;;;;;;;22.19;13.66;100219.00;4754848;30;20072;-82
2022/03/23 11:03:48;;;;;;;2.47;1.63;;;;;;;20.64;14.64;100234.78;4727077;30;20108;-82
2022/03/23 11:06:16;;;;;;;6.03;2.05;;;;;;;20.53;15.50;100239.59;4723612;30;20056;-83
2022/03/23 11:17:07;;;;;;;3.63;1.98;;;;;;;21.28;14.54;100169.03;4722192;30;20083;-83
2022/03/23 11:19:33;;;;;;;4.18;1.75;;;;;;;21.09;14.56;100169.81;4703889;30;20055;-82
2022/03/23 11:22:04;;;;;;;3.60;1.90;;;;;;;21.23;14.46;100207.06;4704747;30;20041;-82
2022/03/23 11:24:37;;;;;;;5.95;1.90;;;;;;;21.00;14.75;100152.56;4705742;30;20075;-83
2022/03/23 11:27:08;;;;;;;4.47;2.25;;;;;;;21.50;14.71;100163.78;4725362;30;20062;-84
2022/03/23 11:29:35;;;;;;;3.72;1.80;;;;;;;21.77;14.28;100182.03;4726233;30;20471;-84
2022/03/23 11:32:04;;;;;;;4.72;1.80;;;;;;;21.92;14.22;100194.59;4737193;30;20445;-81
2022/03/23 11:34:32;;;;;;;4.93;1.80;;;;;;;21.84;13.99;100151.78;4717426;30;20073;-82
2022/03/23 11:36:58;;;;;;;6.35;2.20;;;;;;;22.24;13.74;100156.22;4719020;30;20145;-82
2022/03/23 11:39:24;;;;;;;6.32;2.00;;;;;;;22.81;13.25;100148.34;4745733;30;20041;-84
2022/03/23 11:41:53;;;;;;;4.43;1.90;;;;;;;23.54;12.59;100183.69;4717484;30;20552;-83
2022/03/23 11:44:21;;;;;;;5.25;1.85;;;;;;;23.39;12.65;100152.69;4728041;30;20037;-82
2022/03/23 11:46:47;;;;;;;3.72;2.00;;;;;;;23.52;13.13;100138.75;4702304;30;20425;-81
2022/03/23 11:49:35;;;;;;;4.55;1.85;;;;;;;23.42;12.80;100141.94;4704187;30;20083;-81
2022/03/23 11:52:38;;;;;;;4.00;1.90;;;;;;;23.08;12.73;100178.84;4732559;30;20048;-81
2022/03/23 11:58:01;;;;;;;4.55;1.95;;;;;;;22.53;12.94;100141.69;4746896;30;20049;-80
2022/03/23 12:00:28;;;;;;;3.78;1.90;;;;;;;22.44;13.24;100130.69;4703755;30;20096;-81
2022/03/23 12:02:55;;;;;;;6.00;1.95;;;;;;;22.63;13.05;100099.81;4719556;30;20131;-82
2022/03/23 12:05:24;;;;;;;2.90;1.70;;;;;;;22.51;13.74;100150.63;4705701;30;20061;-82
2022/03/23 12:07:51;;;;;;;4.03;1.98;;;;;;;23.05;13.04;100141.09;4736605;30;20442;-81
2022/03/23 12:10:20;;;;;;;6.80;3.40;;;;;;;23.47;12.92;100102.88;4708318;30;20135;-85
2022/03/23 12:12:46;;;;;;;6.32;2.25;;;;;;;24.19;12.83;100117.69;4734031;30;20073;-84
2022/03/23 12:18:39;;;;;;;6.53;2.33;;;;;;;25.29;13.02;100101.91;4536448;28;20084;-82
2022/03/23 12:21:10;;;;;;;3.40;1.88;;;;;;;25.75;11.52;100109.81;4804208;24;20429;-82
2022/03/23 12:23:46;;;;;;;4.68;2.03;;;;;;;25.20;12.17;100093.59;4705804;30;20041;-80
2022/03/23 12:26:33;;;;;;;5.90;2.20;;;;;;;24.77;12.06;100126.03;4736816;30;20028;-82
2022/03/23 12:29:04;;;;;;;4.45;1.88;;;;;;;23.54;12.28;100099.81;4723019;30;20514;-82
2022/03/23 12:31:37;;;;;;;5.13;2.20;;;;;;;23.33;12.86;100096.47;4728614;30;20068;-82
2022/03/23 12:34:19;;;;;;;6.43;1.92;;;;;;;23.41;12.92;100089.91;4728848;30;20052;-81
2022/03/23 12:37:02;;;;;;;5.00;2.20;;;;;;;23.62;13.27;100119.75;4702466;30;20052;-82
2022/03/23 12:39:30;;;;;;;3.75;1.83;;;;;;;23.42;12.75;100113.69;4751610;30;20109;-82
2022/03/23 12:42:13;;;;;;;6.38;2.22;;;;;;;23.20;13.10;100105.94;4735047;30;20032;-80
2022/03/23 12:44:40;;;;;;;6.13;2.10;;;;;;;22.48;13.51;100111.13;4751194;30;20048;-83
2022/03/23 12:47:12;;;;;;;6.80;1.95;;;;;;;22.67;13.60;100100.53;4717023;30;20044;-82
2022/03/23 12:58:30;;;;;;;5.70;1.95;;;;;;;23.61;12.92;100104.81;4713937;30;20049;-80
2022/03/23 13:01:13;;;;;;;5.45;2.47;;;;;;;23.48;12.96;100094.84;4711583;30;20521;-80
2022/03/23 13:03:39;;;;;;;6.18;2.05;;;;;;;23.76;12.81;100099.59;4723445;30;20131;-80
2022/03/23 13:06:14;;;;;;;4.85;1.80;;;;;;;23.82;12.39;100078.13;4726352;30;20064;-82
2022/03/23 13:08:50;;;;;;;3.13;1.90;;;;;;;23.80;12.19;100090.56;4707002;30;20056;-82
2022/03/23 13:11:18;;;;;;;4.97;2.00;;;;;;;23.60;12.15;100088.06;4703891;30;20080;-80
2022/03/23 13:13:44;;;;;;;5.55;2.10;;;;;;;23.55;12.18;100072.41;4725809;30;20075;-80
2022/03/23 13:16:12;;;;;;;7.60;2.08;;;;;;;23.43;12.26;100075.69;4712256;30;21918;-79
2022/03/23 13:18:41;;;;;;;3.97;1.90;;;;;;;23.57;12.23;100067.03;4727627;30;20044;-80
2022/03/23 13:21:15;;;;;;;4.57;2.03;;;;;;;23.77;13.01;100048.31;4709196;30;20091;-80